createdAt,value
2019-05-05T00:02:24.765Z,15.86
2019-05-05T00:05:19.229Z,15.83
2019-05-05T00:07:49.147Z,15.89
2019-05-05T00:10:27.477Z,15.88
2019-05-05T00:13:16.184Z,15.88
2019-05-05T00:16:04.653Z,15.88
2019-05-05T00:18:34.993Z,15.96
2019-05-05T00:21:04.794Z,15.98
2019-05-05T00:23:34.676Z,16.05
2019-05-05T00:26:04.753Z,16.11
2019-05-05T00:28:35.417Z,16.20
2019-05-05T00:31:05.075Z,16.15
2019-05-05T00:33:34.957Z,16.20
2019-05-05T00:36:07.687Z,16.24
2019-05-05T00:38:36.486Z,16.25
2019-05-05T00:41:06.602Z,16.18
2019-05-05T00:43:36.516Z,16.14
2019-05-05T00:46:12.437Z,16.05
2019-05-05T00:48:44.951Z,15.89
2019-05-05T00:51:15.169Z,15.91
2019-05-05T00:53:45.353Z,15.93
2019-05-05T00:56:15.324Z,15.95
2019-05-05T00:58:50.641Z,15.89
2019-05-05T01:01:38.088Z,15.81
2019-05-05T01:04:08.409Z,15.69
2019-05-05T01:06:38.213Z,15.69
2019-05-05T01:09:09.579Z,15.60
2019-05-05T01:11:39.755Z,15.60
2019-05-05T01:14:09.607Z,15.56
2019-05-05T01:16:39.728Z,15.53
2019-05-05T01:19:09.492Z,15.60
2019-05-05T01:21:39.353Z,15.65
2019-05-05T01:24:09.317Z,15.72
2019-05-05T01:26:39.292Z,15.68
2019-05-05T01:29:10.740Z,15.72
2019-05-05T01:31:40.850Z,15.79
2019-05-05T01:34:26.049Z,15.80
2019-05-05T01:37:05.041Z,15.81
2019-05-05T01:39:41.992Z,15.74
2019-05-05T01:42:15.877Z,15.71
2019-05-05T01:44:45.701Z,15.70
2019-05-05T01:47:15.823Z,15.72
2019-05-05T01:49:45.606Z,15.69
2019-05-05T01:52:15.421Z,15.70
2019-05-05T01:54:45.421Z,15.80
2019-05-05T01:57:15.572Z,15.75
2019-05-05T01:59:45.719Z,15.76
2019-05-05T02:02:15.663Z,15.69
2019-05-05T02:04:45.653Z,15.62
2019-05-05T02:07:15.670Z,15.63
2019-05-05T02:09:45.644Z,15.51
2019-05-05T02:12:16.067Z,15.49
2019-05-05T02:14:46.109Z,15.50
2019-05-05T02:17:16.454Z,15.48
2019-05-05T02:19:46.686Z,15.40
2019-05-05T02:22:16.381Z,15.41
2019-05-05T02:24:46.670Z,15.43
2019-05-05T02:27:19.599Z,15.33
2019-05-05T02:29:58.430Z,15.30
2019-05-05T02:32:47.297Z,15.29
2019-05-05T02:35:17.410Z,15.18
2019-05-05T02:37:47.722Z,15.19
2019-05-05T02:40:20.985Z,15.19
2019-05-05T02:42:54.715Z,15.19
2019-05-05T02:45:37.100Z,15.18
2019-05-05T02:48:15.754Z,15.18
2019-05-05T02:51:00.011Z,15.13
2019-05-05T02:53:41.873Z,15.12
2019-05-05T02:56:17.719Z,15.17
2019-05-05T02:58:48.885Z,15.07
2019-05-05T03:01:38.854Z,15.07
2019-05-05T03:04:09.873Z,15.07
2019-05-05T03:06:43.961Z,15.14
2019-05-05T03:09:15.201Z,15.15
2019-05-05T03:11:48.353Z,15.09
2019-05-05T03:14:19.978Z,15.06
2019-05-05T03:16:51.710Z,15.04
2019-05-05T03:19:24.192Z,15.07
2019-05-05T03:21:55.147Z,15.14
2019-05-05T03:24:25.451Z,15.14
2019-05-05T03:26:55.217Z,15.30
2019-05-05T03:29:27.039Z,15.24
2019-05-05T03:31:58.145Z,15.25
2019-05-05T03:34:28.520Z,15.30
2019-05-05T03:36:58.571Z,15.35
2019-05-05T03:39:31.071Z,15.41
2019-05-05T03:42:26.326Z,15.49
2019-05-05T03:44:59.184Z,15.53
2019-05-05T03:47:29.269Z,15.60
2019-05-05T03:49:59.081Z,15.70
2019-05-05T03:52:29.555Z,15.74
2019-05-05T03:55:00.699Z,15.87
2019-05-05T03:57:30.861Z,15.97
2019-05-05T04:00:00.742Z,16.09
2019-05-05T04:02:54.642Z,16.15
2019-05-05T04:05:30.299Z,16.27
2019-05-05T04:08:03.922Z,16.36
2019-05-05T04:10:34.502Z,16.52
2019-05-05T04:13:04.900Z,16.62
2019-05-05T04:15:35.798Z,16.66
2019-05-05T04:18:19.811Z,16.70
2019-05-05T04:20:49.540Z,16.87
2019-05-05T04:23:19.486Z,16.96
2019-05-05T04:25:49.369Z,17.11
2019-05-05T04:28:19.184Z,17.05
2019-05-05T04:30:48.903Z,17.02
2019-05-05T04:33:19.981Z,17.07
2019-05-05T04:35:49.873Z,17.15
2019-05-05T04:38:19.785Z,17.16
2019-05-05T04:40:50.975Z,17.33
2019-05-05T04:43:20.743Z,17.40
2019-05-05T04:45:50.577Z,17.30
2019-05-05T04:48:26.157Z,17.46
2019-05-05T04:51:20.715Z,17.52
2019-05-05T04:54:15.377Z,17.67
2019-05-05T04:56:45.112Z,17.74
2019-05-05T04:59:15.123Z,17.76
2019-05-05T05:01:45.761Z,17.86
2019-05-05T05:04:44.095Z,18.06
2019-05-05T05:07:15.270Z,18.28
2019-05-05T05:09:45.016Z,18.28
2019-05-05T05:12:14.844Z,18.34
2019-05-05T05:14:44.681Z,18.42
2019-05-05T05:17:20.023Z,18.56
2019-05-05T05:19:51.064Z,18.64
2019-05-05T05:22:20.961Z,18.64
2019-05-05T05:24:50.763Z,18.79
2019-05-05T05:27:20.541Z,18.72
2019-05-05T05:29:50.172Z,18.55
2019-05-05T05:32:20.026Z,18.61
2019-05-05T05:34:49.822Z,18.88
2019-05-05T05:37:20.957Z,19.11
2019-05-05T05:39:57.104Z,19.18
2019-05-05T05:42:26.856Z,19.15
2019-05-05T05:45:18.684Z,19.37
2019-05-05T05:48:14.385Z,19.36
2019-05-05T05:50:59.177Z,19.36
2019-05-05T05:53:28.914Z,19.48
2019-05-05T05:55:58.800Z,19.49
2019-05-05T05:58:28.612Z,19.55
2019-05-05T06:00:59.784Z,19.63
2019-05-05T06:03:29.656Z,19.73
2019-05-05T06:05:59.575Z,19.85
2019-05-05T06:08:30.040Z,19.94
2019-05-05T06:11:00.035Z,20.14
2019-05-05T06:13:31.079Z,20.14
2019-05-05T06:16:00.671Z,20.10
2019-05-05T06:18:30.501Z,20.21
2019-05-05T06:21:00.250Z,20.29
2019-05-05T06:23:30.014Z,20.42
2019-05-05T06:25:59.846Z,20.45
2019-05-05T06:28:29.771Z,20.24
2019-05-05T06:30:59.742Z,20.31
2019-05-05T06:33:29.588Z,20.40
2019-05-05T06:35:59.499Z,20.59
2019-05-05T06:38:30.799Z,20.47
2019-05-05T06:41:18.393Z,20.49
2019-05-05T06:44:10.216Z,20.60
2019-05-05T06:46:57.817Z,20.57
2019-05-05T06:49:31.145Z,20.38
2019-05-05T06:52:00.328Z,20.43
2019-05-05T06:54:30.065Z,20.77
2019-05-05T06:57:00.041Z,21.03
2019-05-05T06:59:30.002Z,21.10
2019-05-05T07:01:59.832Z,21.39
2019-05-05T07:04:29.720Z,21.75
2019-05-05T07:06:59.641Z,21.80
2019-05-05T07:09:29.611Z,22.12
2019-05-05T07:11:59.391Z,22.40
2019-05-05T07:14:29.081Z,22.26
2019-05-05T07:16:58.905Z,21.38
2019-05-05T07:19:28.817Z,21.97
2019-05-05T07:21:58.762Z,22.42
2019-05-05T07:24:28.653Z,22.60
2019-05-05T07:26:58.560Z,22.56
2019-05-05T07:29:29.650Z,23.09
2019-05-05T07:31:59.442Z,23.21
2019-05-05T07:34:47.437Z,23.18
2019-05-05T07:37:18.525Z,23.56
2019-05-05T07:39:48.682Z,23.35
2019-05-05T07:42:18.172Z,23.07
2019-05-05T07:44:47.663Z,23.12
2019-05-05T07:47:17.177Z,23.58
2019-05-05T07:49:46.675Z,23.25
2019-05-05T07:52:17.948Z,23.58
2019-05-05T07:54:47.733Z,23.77
2019-05-05T07:57:17.573Z,22.19
2019-05-05T07:59:47.303Z,23.46
2019-05-05T08:02:17.072Z,24.20
2019-05-05T08:04:47.050Z,24.54
2019-05-05T08:07:16.715Z,24.59
2019-05-05T08:09:46.494Z,24.55
2019-05-05T08:12:16.380Z,24.21
2019-05-05T08:14:46.261Z,24.40
2019-05-05T08:17:44.646Z,23.92
2019-05-05T08:20:19.402Z,24.19
2019-05-05T08:22:49.411Z,24.01
2019-05-05T08:25:40.954Z,24.28
2019-05-05T08:28:18.192Z,23.83
2019-05-05T08:31:01.200Z,24.30
2019-05-05T08:33:31.067Z,22.99
2019-05-05T08:36:00.882Z,22.92
2019-05-05T08:38:31.574Z,23.23
2019-05-05T08:41:01.372Z,23.36
2019-05-05T08:43:31.101Z,23.30
2019-05-05T08:46:00.818Z,23.27
2019-05-05T08:48:30.737Z,23.32
2019-05-05T08:51:00.575Z,23.24
2019-05-05T08:53:41.607Z,23.24
2019-05-05T08:56:03.963Z,23.28
2019-05-05T08:58:34.436Z,23.07
2019-05-05T09:01:04.599Z,23.14
2019-05-05T09:03:34.422Z,23.26
2019-05-05T09:06:04.786Z,23.79
2019-05-05T09:08:34.885Z,23.74
2019-05-05T09:11:04.999Z,23.76
2019-05-05T09:13:36.191Z,23.95
2019-05-05T09:16:06.050Z,24.23
2019-05-05T09:18:38.775Z,23.78
2019-05-05T09:21:08.609Z,23.51
2019-05-05T09:23:40.118Z,23.75
2019-05-05T09:26:31.925Z,23.72
2019-05-05T09:29:18.665Z,23.71
2019-05-05T09:31:48.622Z,23.27
2019-05-05T09:34:18.310Z,23.36
2019-05-05T09:36:48.223Z,23.05
2019-05-05T09:39:18.053Z,22.88
2019-05-05T09:41:47.989Z,22.81
2019-05-05T09:44:17.866Z,22.49
2019-05-05T09:46:47.883Z,22.34
2019-05-05T09:49:18.956Z,22.39
2019-05-05T09:51:49.317Z,22.17
2019-05-05T09:54:19.265Z,22.16
2019-05-05T09:56:50.309Z,22.04
2019-05-05T09:59:20.108Z,21.87
2019-05-05T10:01:49.827Z,21.57
2019-05-05T10:04:19.817Z,21.41
2019-05-05T10:06:49.578Z,21.43
2019-05-05T10:09:19.508Z,21.22
2019-05-05T10:11:49.385Z,21.26
2019-05-05T10:14:19.303Z,21.29
2019-05-05T10:16:49.184Z,21.43
2019-05-05T10:19:18.961Z,21.58
2019-05-05T10:21:48.870Z,21.78
2019-05-05T10:24:33.837Z,21.87
2019-05-05T10:27:04.919Z,22.33
2019-05-05T10:29:34.822Z,22.84
2019-05-05T10:32:04.934Z,23.42
2019-05-05T10:34:34.830Z,23.85
2019-05-05T10:37:04.905Z,24.43
2019-05-05T10:39:43.889Z,24.82
2019-05-05T10:42:14.471Z,24.80
2019-05-05T10:44:44.629Z,24.77
2019-05-05T10:47:14.464Z,24.62
2019-05-05T10:49:44.426Z,23.55
2019-05-05T10:52:14.478Z,23.11
2019-05-05T10:54:47.823Z,22.53
2019-05-05T10:57:18.541Z,22.35
2019-05-05T10:59:48.552Z,22.74
2019-05-05T11:02:19.813Z,23.03
2019-05-05T11:04:50.125Z,22.44
2019-05-05T11:07:20.029Z,23.03
2019-05-05T11:09:49.898Z,24.11
2019-05-05T11:12:19.755Z,24.60
2019-05-05T11:14:49.678Z,24.12
2019-05-05T11:17:19.735Z,24.68
2019-05-05T11:19:50.257Z,25.09
2019-05-05T11:22:20.145Z,25.24
2019-05-05T11:24:58.316Z,24.79
2019-05-05T11:27:21.408Z,25.36
2019-05-05T11:30:14.479Z,25.43
2019-05-05T11:33:03.857Z,25.49
2019-05-05T11:35:49.847Z,25.05
2019-05-05T11:38:19.747Z,25.02
2019-05-05T11:40:49.667Z,24.89
2019-05-05T11:43:20.933Z,24.69
2019-05-05T11:45:50.626Z,24.49
2019-05-05T11:48:20.469Z,24.47
2019-05-05T11:50:50.379Z,24.30
2019-05-05T11:53:21.537Z,24.35
2019-05-05T11:55:55.035Z,24.26
2019-05-05T11:58:25.168Z,24.83
2019-05-05T12:00:55.069Z,24.80
2019-05-05T12:03:24.928Z,24.91
2019-05-05T12:05:55.206Z,24.40
2019-05-05T12:08:25.005Z,24.43
2019-05-05T12:10:57.223Z,24.59
2019-05-05T12:13:26.918Z,25.22
2019-05-05T12:16:08.329Z,24.88
2019-05-05T12:18:38.176Z,25.02
2019-05-05T12:21:08.107Z,25.60
2019-05-05T12:23:39.167Z,25.41
2019-05-05T12:26:32.220Z,25.54
2019-05-05T12:29:20.948Z,25.32
2019-05-05T12:31:52.376Z,25.32
2019-05-05T12:34:23.620Z,25.77
2019-05-05T12:36:54.097Z,26.24
2019-05-05T12:39:23.838Z,28.05
2019-05-05T12:41:54.270Z,28.38
2019-05-05T12:44:34.000Z,27.31
2019-05-05T12:47:16.634Z,27.88
2019-05-05T12:49:47.779Z,27.23
2019-05-05T12:52:17.460Z,28.22
2019-05-05T12:54:47.367Z,29.42
2019-05-05T12:57:18.499Z,28.94
2019-05-05T12:59:48.231Z,28.55
2019-05-05T13:02:18.512Z,29.62
2019-05-05T13:04:48.159Z,29.99
2019-05-05T13:07:18.102Z,30.10
2019-05-05T13:09:47.957Z,30.40
2019-05-05T13:12:17.615Z,31.07
2019-05-05T13:14:47.529Z,30.28
2019-05-05T13:17:17.489Z,29.62
2019-05-05T13:20:06.246Z,29.04
2019-05-05T13:22:55.490Z,28.68
2019-05-05T13:25:56.755Z,29.78
2019-05-05T13:28:25.934Z,29.53
2019-05-05T13:30:55.835Z,29.40
2019-05-05T13:33:25.805Z,29.52
2019-05-05T13:35:55.667Z,29.24
2019-05-05T13:38:25.489Z,27.39
2019-05-05T13:40:55.344Z,25.60
2019-05-05T13:43:25.131Z,25.34
2019-05-05T13:46:03.592Z,24.51
2019-05-05T13:48:33.791Z,24.14
2019-05-05T13:51:04.984Z,23.79
2019-05-05T13:53:34.970Z,23.71
2019-05-05T13:56:11.779Z,23.21
2019-05-05T13:58:36.627Z,23.12
2019-05-05T14:01:09.587Z,23.09
2019-05-05T14:03:37.891Z,23.50
2019-05-05T14:06:07.790Z,23.76
2019-05-05T14:08:38.977Z,24.45
2019-05-05T14:11:08.745Z,25.25
2019-05-05T14:13:39.797Z,24.50
2019-05-05T14:16:09.611Z,24.42
2019-05-05T14:18:40.591Z,24.39
2019-05-05T14:21:10.367Z,24.42
2019-05-05T14:23:57.904Z,23.77
2019-05-05T14:26:28.522Z,22.93
2019-05-05T14:29:00.406Z,22.48
2019-05-05T14:31:36.375Z,23.17
2019-05-05T14:34:14.030Z,23.43
2019-05-05T14:37:01.403Z,22.57
2019-05-05T14:39:34.143Z,22.48
2019-05-05T14:42:04.543Z,22.33
2019-05-05T14:44:35.624Z,22.33
2019-05-05T14:47:05.433Z,22.19
2019-05-05T14:49:35.093Z,21.81
2019-05-05T14:52:05.090Z,21.89
2019-05-05T14:54:35.917Z,21.74
2019-05-05T14:57:07.280Z,21.84
2019-05-05T14:59:38.221Z,21.71
2019-05-05T15:02:08.111Z,21.52
2019-05-05T15:04:39.818Z,21.34
2019-05-05T15:07:14.957Z,21.57
2019-05-05T15:09:51.797Z,22.06
2019-05-05T15:12:44.668Z,23.44
2019-05-05T15:15:14.666Z,23.78
2019-05-05T15:17:44.424Z,23.99
2019-05-05T15:20:15.965Z,23.41
2019-05-05T15:22:45.748Z,23.11
2019-05-05T15:25:15.681Z,23.22
2019-05-05T15:27:45.549Z,23.34
2019-05-05T15:30:16.035Z,23.49
2019-05-05T15:32:45.851Z,23.10
2019-05-05T15:35:15.719Z,23.07
2019-05-05T15:37:45.686Z,22.82
2019-05-05T15:40:16.544Z,22.70
2019-05-05T15:42:46.427Z,22.57
2019-05-05T15:45:16.342Z,21.89
2019-05-05T15:47:46.212Z,21.25
2019-05-05T15:50:16.312Z,21.61
2019-05-05T15:52:46.115Z,21.74
2019-05-05T15:55:17.577Z,21.28
2019-05-05T15:57:48.738Z,20.83
2019-05-05T16:00:19.128Z,20.00
2019-05-05T16:02:49.196Z,19.85
2019-05-05T16:05:19.075Z,20.35
2019-05-05T16:07:48.863Z,20.35
2019-05-05T16:10:22.621Z,20.71
2019-05-05T16:12:53.830Z,19.97
2019-05-05T16:15:53.561Z,19.97
2019-05-05T16:18:32.864Z,20.00
2019-05-05T16:21:20.998Z,19.73
2019-05-05T16:23:54.870Z,19.33
2019-05-05T16:26:25.917Z,19.27
2019-05-05T16:28:55.693Z,19.05
2019-05-05T16:31:27.650Z,19.15
2019-05-05T16:33:57.217Z,19.12
2019-05-05T16:36:27.102Z,18.66
2019-05-05T16:38:56.957Z,18.57
2019-05-05T16:41:26.825Z,19.61
2019-05-05T16:43:56.674Z,20.54
2019-05-05T16:46:26.332Z,21.07
2019-05-05T16:48:56.157Z,21.42
2019-05-05T16:51:33.344Z,21.67
2019-05-05T16:54:06.369Z,21.98
2019-05-05T16:56:37.392Z,22.13
2019-05-05T16:59:07.408Z,22.04
2019-05-05T17:01:37.318Z,21.89
2019-05-05T17:04:11.057Z,21.61
2019-05-05T17:06:38.588Z,21.31
2019-05-05T17:09:08.608Z,21.29
2019-05-05T17:11:39.648Z,21.21
2019-05-05T17:14:28.330Z,21.01
2019-05-05T17:17:23.262Z,20.65
2019-05-05T17:19:59.503Z,20.22
2019-05-05T17:22:36.562Z,19.95
2019-05-05T17:25:08.875Z,19.71
2019-05-05T17:27:47.677Z,19.68
2019-05-05T17:30:11.651Z,19.60
2019-05-05T17:32:41.432Z,19.63
2019-05-05T17:35:11.457Z,19.69
2019-05-05T17:37:41.331Z,19.67
2019-05-05T17:40:24.127Z,19.59
2019-05-05T17:43:27.965Z,19.62
2019-05-05T17:46:04.591Z,19.55
2019-05-05T17:48:48.849Z,19.53
2019-05-05T17:51:26.027Z,19.49
2019-05-05T17:54:08.801Z,19.41
2019-05-05T17:56:38.554Z,19.53
2019-05-05T17:59:08.385Z,19.61
2019-05-05T18:01:38.389Z,19.65
2019-05-05T18:04:08.196Z,19.70
2019-05-05T18:06:48.979Z,19.78
2019-05-05T18:09:26.960Z,19.73
2019-05-05T18:12:23.474Z,19.76
2019-05-05T18:14:54.480Z,19.72
2019-05-05T18:17:25.419Z,19.72
2019-05-05T18:19:55.123Z,19.75
2019-05-05T18:22:24.945Z,19.70
2019-05-05T18:24:54.976Z,19.66
2019-05-05T18:27:24.882Z,19.58
2019-05-05T18:29:54.714Z,19.52
2019-05-05T18:32:25.868Z,19.51
2019-05-05T18:34:55.746Z,19.53
2019-05-05T18:37:25.778Z,19.56
2019-05-05T18:39:55.516Z,19.56
2019-05-05T18:42:25.579Z,19.74
2019-05-05T18:45:08.495Z,19.83
2019-05-05T18:47:38.342Z,19.83
2019-05-05T18:50:08.465Z,20.01
2019-05-05T18:52:38.181Z,20.13
2019-05-05T18:55:08.101Z,20.13
2019-05-05T18:57:39.130Z,20.23
2019-05-05T19:00:11.627Z,20.19
2019-05-05T19:02:53.579Z,20.09
2019-05-05T19:05:34.437Z,20.09
2019-05-05T19:08:25.916Z,20.05
2019-05-05T19:10:55.916Z,20.08
2019-05-05T19:13:26.898Z,20.09
2019-05-05T19:15:56.794Z,20.09
2019-05-05T19:18:26.598Z,20.09
2019-05-05T19:21:05.908Z,20.10
2019-05-05T19:23:35.731Z,20.13
2019-05-05T19:26:07.611Z,20.08
2019-05-05T19:28:44.387Z,20.05
2019-05-05T19:31:10.006Z,20.05
2019-05-05T19:33:39.829Z,20.04
2019-05-05T19:36:09.891Z,20.17
2019-05-05T19:38:39.669Z,20.23
2019-05-05T19:41:09.588Z,20.18
2019-05-05T19:43:54.918Z,20.14
2019-05-05T19:46:31.547Z,20.00
2019-05-05T19:49:19.157Z,19.18
2019-05-05T19:51:49.424Z,18.65
2019-05-05T19:54:19.027Z,18.24
2019-05-05T19:56:50.036Z,18.07
2019-05-05T19:59:19.983Z,17.90
2019-05-05T20:01:49.981Z,18.01
2019-05-05T20:04:19.817Z,17.89
2019-05-05T20:06:49.711Z,17.79
2019-05-05T20:09:20.874Z,17.77
2019-05-05T20:11:50.750Z,17.76
2019-05-05T20:14:20.663Z,17.73
2019-05-05T20:17:07.496Z,17.81
2019-05-05T20:19:43.767Z,17.73
2019-05-05T20:22:14.567Z,17.56
2019-05-05T20:24:44.848Z,17.59
2019-05-05T20:27:16.291Z,17.71
2019-05-05T20:29:46.078Z,17.68
2019-05-05T20:32:17.661Z,17.58
2019-05-05T20:35:06.268Z,17.58
2019-05-05T20:37:54.167Z,17.54
2019-05-05T20:40:26.450Z,17.47
2019-05-05T20:42:56.341Z,17.56
2019-05-05T20:45:28.635Z,17.70
2019-05-05T20:47:58.461Z,17.80
2019-05-05T20:50:28.449Z,17.88
2019-05-05T20:52:58.251Z,17.86
2019-05-05T20:55:28.176Z,17.78
2019-05-05T20:57:58.119Z,17.87
2019-05-05T21:00:27.994Z,17.94
2019-05-05T21:02:57.946Z,17.90
2019-05-05T21:05:27.728Z,17.97
2019-05-05T21:07:57.792Z,17.92
2019-05-05T21:10:27.582Z,18.00
2019-05-05T21:12:57.496Z,18.18
2019-05-05T21:15:27.459Z,18.14
2019-05-05T21:17:57.211Z,18.35
2019-05-05T21:20:27.136Z,18.53
2019-05-05T21:23:10.229Z,18.51
2019-05-05T21:25:44.393Z,18.56
2019-05-05T21:28:15.036Z,18.52
2019-05-05T21:30:44.809Z,18.47
2019-05-05T21:33:14.733Z,18.46
2019-05-05T21:35:44.494Z,18.49
2019-05-05T21:38:14.378Z,18.43
2019-05-05T21:40:44.265Z,18.44
2019-05-05T21:43:15.463Z,18.34
2019-05-05T21:45:45.130Z,18.30
2019-05-05T21:48:15.039Z,18.22
2019-05-05T21:50:51.103Z,18.31
2019-05-05T21:53:39.843Z,18.15
2019-05-05T21:56:28.370Z,18.10
2019-05-05T21:58:59.031Z,18.09
2019-05-05T22:01:31.001Z,18.12
2019-05-05T22:04:00.928Z,18.03
2019-05-05T22:06:30.811Z,18.01
2019-05-05T22:09:00.677Z,17.99
2019-05-05T22:11:30.598Z,17.98
2019-05-05T22:14:00.570Z,17.99
2019-05-05T22:16:30.440Z,17.97
2019-05-05T22:19:00.538Z,17.93
2019-05-05T22:21:47.571Z,17.85
2019-05-05T22:24:20.977Z,17.86
2019-05-05T22:26:50.745Z,17.85
2019-05-05T22:29:20.634Z,17.83
2019-05-05T22:31:50.414Z,17.79
2019-05-05T22:34:20.565Z,17.69
2019-05-05T22:36:50.582Z,17.66
2019-05-05T22:39:20.476Z,17.63
2019-05-05T22:41:50.284Z,17.63
2019-05-05T22:44:20.464Z,17.59
2019-05-05T22:46:50.306Z,17.59
2019-05-05T22:49:20.222Z,17.65
2019-05-05T22:51:50.206Z,17.67
2019-05-05T22:54:19.868Z,17.59
2019-05-05T22:56:49.714Z,17.63
2019-05-05T22:59:19.611Z,17.59
2019-05-05T23:01:49.422Z,17.55
2019-05-05T23:04:27.078Z,17.52
2019-05-05T23:07:00.809Z,17.41
2019-05-05T23:09:30.676Z,17.48
2019-05-05T23:12:00.487Z,17.29
2019-05-05T23:14:31.569Z,17.38
2019-05-05T23:17:20.112Z,17.50
2019-05-05T23:19:55.567Z,17.53
2019-05-05T23:22:44.418Z,17.50
2019-05-05T23:25:28.722Z,17.57
2019-05-05T23:27:59.866Z,17.59
2019-05-05T23:30:39.374Z,17.68
2019-05-05T23:33:02.155Z,17.77
2019-05-05T23:35:34.308Z,17.76
2019-05-05T23:38:03.934Z,17.84
2019-05-05T23:40:34.733Z,17.90
2019-05-05T23:43:04.615Z,17.98
2019-05-05T23:45:34.385Z,18.05
2019-05-05T23:48:04.396Z,18.11
2019-05-05T23:50:34.232Z,18.16
2019-05-05T23:53:04.023Z,18.18
2019-05-05T23:55:34.449Z,18.21
2019-05-05T23:58:04.294Z,18.21
